Stations météo

réclame
Mon MeteoGroup
S. Valentino Alla Muta, Italie (16008): Température de l'air & dewpoint: 10.12.2017 18:00:00 - 16.12.2017 18:00:00 (CET)S. Valentino Alla Muta, Italie (16008): Vitesse du vent: 10.12.2017 18:00:00 - 16.12.2017 18:00:00 (CET)S. Valentino Alla Muta, Italie (16008): Direction du vent: 10.12.2017 18:00:00 - 16.12.2017 18:00:00 (CET)S. Valentino Alla Muta, Italie (16008): visibility: 10.12.2017 18:00:00 - 16.12.2017 18:00:00 (CET)
Date & Time tt [°C] td [°C] ff [km/h] ff [knt] dd vv [km]
16.12.2017 18:00:00 - - - - - -
16.12.2017 17:00:00 -3,0 -12,0 5 3 NNE 10
16.12.2017 16:00:00 -3,0 -12,0 8 4 N 10
16.12.2017 15:00:00 -2,0 -11,0 5 3 NNE 10
16.12.2017 14:00:00 -2,0 -11,0 8 4 NNE 10
16.12.2017 13:00:00 -2,8 -11,8 9 5 NNE 20
16.12.2017 12:00:00 -2,2 -11,2 11 6 N 10
16.12.2017 11:00:00 -2,8 -9,5 9 5 NNW 10
16.12.2017 10:00:00 -6,8 -10,3 5 3 N 10
16.12.2017 09:00:00 -7,2 -10,5 8 4 N 10
16.12.2017 08:00:00 -7,4 -10,7 5 3 NNE 12
16.12.2017 07:00:00 -7,4 -10,6 9 5 NNE 10
16.12.2017 06:00:00 -7,6 -10,8 8 4 N 10
16.12.2017 05:00:00 -7,6 -10,4 8 4 N 10
16.12.2017 04:00:00 -7,6 -10,1 8 4 N 10
16.12.2017 03:00:00 - - - - - -
16.12.2017 02:00:00 -8,6 -11,1 8 4 NNE 10
16.12.2017 01:00:00 -8,2 -10,7 11 6 NNE 10
16.12.2017 00:00:00 -7,8 -10,8 9 5 NNE 10
15.12.2017 23:00:00 -7,6 -10,6 11 6 NNE 10
15.12.2017 22:00:00 -7,6 -10,6 8 4 NNE 10
15.12.2017 21:00:00 -7,4 -10,7 8 4 N 10
15.12.2017 20:00:00 -6,6 -10,0 9 5 NNE 10
15.12.2017 19:00:00 -6,4 -10,3 8 4 NNE 10
15.12.2017 18:00:00 -5,2 -11,5 8 4 NNE 12
15.12.2017 17:00:00 -3,6 -8,6 5 3 NNE 12
15.12.2017 16:00:00 -2,2 -7,1 5 3 NNE 10
15.12.2017 15:00:00 0,0 -5,2 5 3 N 12
15.12.2017 14:00:00 -1,4 -6,0 5 3 NNE 8
15.12.2017 13:00:00 -1,8 -5,8 9 5 NNE 8
15.12.2017 12:00:00 -2,0 -5,3 5 3 NNE 8
15.12.2017 11:00:00 -3,0 -4,5 9 5 NNE 8
15.12.2017 10:00:00 -3,0 -3,0 5 3 NNE 6
15.12.2017 09:00:00 -3,0 -3,1 0 0 N 8
15.12.2017 08:00:00 -3,0 -3,1 5 3 WNW 3,0
15.12.2017 07:00:00 -3,0 -3,1 5 3 NNW 2,0
15.12.2017 06:00:00 -3,0 -3,1 5 3 N 2,0
15.12.2017 05:00:00 -3,2 -3,3 5 3 N 3,0
15.12.2017 04:00:00 -3,0 -3,1 15 8 SE 10
15.12.2017 03:00:00 -3,0 -3,1 15 8 SSW 10
15.12.2017 02:00:00 -3,2 -3,3 16 9 S 10
15.12.2017 01:00:00 -3,2 -3,3 18 10 S 10
15.12.2017 00:00:00 -3,2 -3,3 15 8 S 10
14.12.2017 23:00:00 -3,0 -3,3 11 6 S 10
14.12.2017 22:00:00 -3,0 -3,5 15 8 SSE 10
14.12.2017 21:00:00 -3,0 -4,7 11 6 S 10
14.12.2017 20:00:00 -2,8 -4,5 15 8 S 10
14.12.2017 19:00:00 -2,8 -3,5 0 0 N 10
14.12.2017 18:00:00 -2,6 -3,7 0 0 N 10
14.12.2017 17:00:00 -2,2 -4,2 0 0 N 10
14.12.2017 16:00:00 -2,0 -5,3 0 0 N 10
14.12.2017 15:00:00 -2,0 -5,3 0 0 N 10
14.12.2017 14:00:00 -2,0 -5,2 8 4 SSW 10
14.12.2017 13:00:00 -2,0 -5,8 11 6 S 10
14.12.2017 12:00:00 -1,8 -6,5 5 3 SSW 10
14.12.2017 11:00:00 1,4 -3,5 11 6 SSW 10
14.12.2017 10:00:00 -3,0 -6,8 15 8 SSW 15
14.12.2017 09:00:00 -6,4 -8,1 0 0 N 10
14.12.2017 08:00:00 -6,8 -8,6 0 0 N 10
14.12.2017 07:00:00 -6,4 -8,2 9 5 SSW 10
14.12.2017 06:00:00 -7,6 -9,0 4 2 E 10
14.12.2017 05:00:00 - - - - - -
14.12.2017 04:00:00 -6,6 -9,5 4 2 ENE 10
14.12.2017 03:00:00 -6,2 -8,8 11 6 SW 10
14.12.2017 02:00:00 -6,0 -8,6 11 6 WSW 10
14.12.2017 01:00:00 -5,8 -10,7 4 2 SW 10
14.12.2017 00:00:00 -5,8 -9,3 11 6 SW 12
13.12.2017 23:00:00 -6,8 -9,5 13 7 WSW 10
13.12.2017 22:00:00 -8,2 -9,1 4 2 ESE 10
13.12.2017 21:00:00 -8,4 -9,7 0 0 N 10
13.12.2017 20:00:00 -7,8 -9,7 0 0 N 10
13.12.2017 19:00:00 -6,4 -8,4 0 0 N 10
13.12.2017 18:00:00 -6,2 -8,5 0 0 N 12
13.12.2017 17:00:00 -4,8 -7,7 0 0 N 20
13.12.2017 16:00:00 -3,4 -7,7 0 0 N 20
13.12.2017 15:00:00 -3,0 -8,8 5 3 N 20
13.12.2017 14:00:00 -2,4 -10,0 8 4 N 30
13.12.2017 13:00:00 -2,8 -10,8 9 5 N 30
13.12.2017 12:00:00 -3,4 -11,1 8 4 N 30
13.12.2017 11:00:00 -3,8 -11,1 9 5 N 30
13.12.2017 10:00:00 -7,2 -10,9 8 4 NNE 20
13.12.2017 09:00:00 -8,0 -10,5 5 3 NNE 20
13.12.2017 08:00:00 -7,8 -10,5 5 3 N 20
13.12.2017 07:00:00 -7,6 -10,1 5 3 NNE 20
13.12.2017 06:00:00 -7,2 -9,3 5 3 NNE 15
13.12.2017 05:00:00 -6,6 -9,2 4 2 NNE 15
13.12.2017 04:00:00 -6,2 -8,6 5 3 N 15
13.12.2017 03:00:00 -5,4 -7,8 5 3 N 15
13.12.2017 02:00:00 -4,4 -7,0 8 4 N 10
13.12.2017 01:00:00 -4,2 -6,8 5 3 N 10
13.12.2017 00:00:00 -2,6 -4,8 8 4 NNE 3,0
12.12.2017 23:00:00 -2,6 -4,8 8 4 NNE 3,0
12.12.2017 22:00:00 -2,8 -4,2 9 5 N 3,0
12.12.2017 21:00:00 -2,8 -2,9 9 5 NNE 1,5
12.12.2017 20:00:00 -2,8 -4,2 13 7 NNE 2,0
12.12.2017 19:00:00 -1,6 -3,8 13 7 ENE 4,0
12.12.2017 18:00:00 -1,0 -2,4 11 6 NNE 3,0
12.12.2017 17:00:00 0,0 -0,7 9 5 N 3,0
12.12.2017 16:00:00 0,6 0,3 9 5 SSE 3,0
12.12.2017 15:00:00 1,0 0,7 9 5 SSE 3,0
12.12.2017 14:00:00 1,0 0,3 9 5 SSE 3,0
12.12.2017 13:00:00 1,0 0,3 15 8 S 6
12.12.2017 12:00:00 1,0 0,3 13 7 S 6
12.12.2017 11:00:00 1,0 0,0 13 7 SSE 6
12.12.2017 10:00:00 0,4 0,2 15 8 S 6
12.12.2017 09:00:00 0,2 0,1 16 9 S 1,2
12.12.2017 08:00:00 0,4 0,2 13 7 S 1,0
12.12.2017 07:00:00 0,6 0,6 16 9 S 2,0
12.12.2017 06:00:00 0,2 0,2 16 9 S 1,0
12.12.2017 05:00:00 0,2 0,2 11 6 S 0,9
12.12.2017 04:00:00 0,0 0,0 16 9 SSE 0,9
12.12.2017 03:00:00 0,0 0,0 16 9 SSE 0,7
12.12.2017 02:00:00 0,0 0,0 16 9 SSE 0,6
12.12.2017 01:00:00 0,0 0,0 16 9 SSE 0,6
12.12.2017 00:00:00 0,0 0,0 16 9 SSE 0,5
11.12.2017 23:00:00 0,0 0,0 18 10 SSE 0,5
11.12.2017 22:00:00 0,0 0,0 16 9 SSE 0,4
11.12.2017 21:00:00 -0,4 -0,4 18 10 SSE 0,4
11.12.2017 20:00:00 -0,6 -0,6 18 10 SSE 0,2
11.12.2017 19:00:00 -1,4 -1,4 22 12 SSE 0,3
11.12.2017 18:00:00 -2,0 -2,1 24 13 SSE 0,3
11.12.2017 17:00:00 -2,0 -2,0 28 15 SSE 0,3
11.12.2017 16:00:00 -2,4 -2,4 24 13 SSE 0,3
11.12.2017 15:00:00 -3,0 -3,0 24 13 SSE 0,4
11.12.2017 14:00:00 -3,4 -3,4 22 12 SSE 0,4
11.12.2017 13:00:00 -3,8 -3,8 22 12 S 0,4
11.12.2017 12:00:00 -4,4 -4,4 22 12 S 0,3
11.12.2017 11:00:00 -5,0 -5,0 15 8 SSE 0,3
11.12.2017 10:00:00 -5,0 -5,1 22 12 SSE 0,3
11.12.2017 09:00:00 -5,8 -5,9 13 7 S 0,3
11.12.2017 08:00:00 -6,2 -6,3 21 11 S 0,3
11.12.2017 07:00:00 -7,0 -7,1 16 9 S 1,5
11.12.2017 06:00:00 -7,6 -7,7 15 8 SSW 2,0
11.12.2017 05:00:00 -7,8 -7,9 13 7 SSW 2,0
11.12.2017 04:00:00 -8,0 -8,1 18 10 SW 3,0
11.12.2017 03:00:00 -8,0 -8,1 22 12 SSW 3,0
11.12.2017 02:00:00 -8,0 -8,1 21 11 S 2,0
11.12.2017 01:00:00 -8,4 -8,5 21 11 S 3,0
11.12.2017 00:00:00 -9,0 -9,1 22 12 SSW 3,0
10.12.2017 23:00:00 -9,2 -9,3 16 9 SSW 3,0
10.12.2017 22:00:00 -9,6 -9,7 21 11 WSW 3,0
10.12.2017 21:00:00 -9,6 -9,7 16 9 WSW 3,0
10.12.2017 20:00:00 -9,6 -9,7 13 7 SSW 3,0
10.12.2017 19:00:00 -9,4 -9,5 16 9 S 3,0
10.12.2017 18:00:00 -8,8 -10,1 16 9 SSW 2,0

tt = Température de l'air
td = dewpoint
ff = Vitesse du vent
dd = Direction du vent
vv = visibility

stations d'obs. à proximité